createdAt,value
2022-10-29T00:01:00.188Z,101000.13
2022-10-29T00:03:27.771Z,101007.69
2022-10-29T00:06:03.536Z,101007.19
2022-10-29T00:08:32.920Z,101008.00
2022-10-29T00:11:12.584Z,101010.34
2022-10-29T00:13:41.212Z,101008.62
2022-10-29T00:16:14.261Z,100998.03
2022-10-29T00:18:41.866Z,101009.66
2022-10-29T00:21:12.858Z,101004.25
2022-10-29T00:23:40.599Z,101005.69
2022-10-29T00:26:08.343Z,101006.59
2022-10-29T00:28:35.907Z,101007.41
2022-10-29T00:31:09.213Z,101000.34
2022-10-29T00:33:36.873Z,101004.44
2022-10-29T00:36:07.210Z,101012.44
2022-10-29T00:38:35.283Z,101013.19
2022-10-29T00:41:04.135Z,101013.94
2022-10-29T00:43:34.128Z,101011.66
2022-10-29T00:46:05.101Z,101009.66
2022-10-29T00:48:36.440Z,101013.37
2022-10-29T00:51:05.911Z,101010.09
2022-10-29T00:53:35.716Z,101009.72
2022-10-29T00:56:03.167Z,101001.91
2022-10-29T00:58:30.504Z,101002.03
2022-10-29T01:00:59.328Z,100998.00
2022-10-29T01:03:26.719Z,100999.53
2022-10-29T01:05:54.190Z,100995.88
2022-10-29T01:08:22.165Z,100987.94
2022-10-29T01:10:59.694Z,100991.78
2022-10-29T01:13:49.073Z,100982.41
2022-10-29T01:16:25.410Z,100980.72
2022-10-29T01:19:07.936Z,100983.22
2022-10-29T01:21:45.458Z,100971.88
2022-10-29T01:24:39.265Z,100973.41
2022-10-29T01:27:16.592Z,100967.97
2022-10-29T01:29:50.067Z,100968.94
2022-10-29T01:32:45.797Z,100966.00
2022-10-29T01:35:47.484Z,100961.91
2022-10-29T01:38:36.550Z,100964.56
2022-10-29T01:41:16.252Z,100957.72
2022-10-29T01:44:03.775Z,100944.28
2022-10-29T01:46:47.918Z,100947.06
2022-10-29T01:49:19.441Z,100944.75
2022-10-29T01:51:48.671Z,100949.44
2022-10-29T01:54:15.987Z,100946.78
2022-10-29T01:56:43.372Z,100945.22
2022-10-29T01:59:22.886Z,100937.03
2022-10-29T02:02:08.431Z,100942.22
2022-10-29T02:04:58.663Z,100934.69
2022-10-29T02:07:25.855Z,100937.19
2022-10-29T02:10:01.379Z,100932.34
2022-10-29T02:12:35.232Z,100940.69
2022-10-29T02:15:06.592Z,100948.84
2022-10-29T02:17:34.594Z,100939.56
2022-10-29T02:20:07.371Z,100941.25
2022-10-29T02:22:35.048Z,100937.38
2022-10-29T02:25:02.954Z,100937.78
2022-10-29T02:27:30.362Z,100925.75
2022-10-29T02:29:57.960Z,100930.66
2022-10-29T02:32:25.287Z,100936.81
2022-10-29T02:34:52.690Z,100935.72
2022-10-29T02:37:20.365Z,100940.03
2022-10-29T02:39:47.744Z,100940.97
2022-10-29T02:42:15.081Z,100943.16
2022-10-29T02:44:42.664Z,100935.13
2022-10-29T02:47:09.990Z,100930.56
2022-10-29T02:49:37.431Z,100927.91
2022-10-29T02:52:05.062Z,100937.44
2022-10-29T02:54:32.455Z,100933.31
2022-10-29T02:56:59.868Z,100926.69
2022-10-29T02:59:27.494Z,100919.66
2022-10-29T03:01:54.973Z,100929.44
2022-10-29T03:04:22.364Z,100919.75
2022-10-29T03:06:49.979Z,100920.81
2022-10-29T03:09:17.724Z,100923.03
2022-10-29T03:11:45.075Z,100922.28
2022-10-29T03:14:12.681Z,100930.50
2022-10-29T03:16:40.023Z,100923.38
2022-10-29T03:19:07.348Z,100934.47
2022-10-29T03:21:34.950Z,100930.16
2022-10-29T03:24:02.268Z,100929.09
2022-10-29T03:26:29.659Z,100918.63
2022-10-29T03:28:57.270Z,100915.37
2022-10-29T03:31:24.629Z,100925.44
2022-10-29T03:33:51.947Z,100923.88
2022-10-29T03:36:19.645Z,100921.50
2022-10-29T03:38:47.022Z,100921.31
2022-10-29T03:41:14.366Z,100920.47
2022-10-29T03:43:42.105Z,100914.75
2022-10-29T03:46:09.499Z,100914.81
2022-10-29T03:48:37.111Z,100922.63
2022-10-29T03:51:06.321Z,100924.25
2022-10-29T03:53:35.478Z,100917.97
2022-10-29T03:56:03.680Z,100918.37
2022-10-29T03:58:31.395Z,100922.66
2022-10-29T04:01:04.583Z,100922.81
2022-10-29T04:03:33.503Z,100920.00
2022-10-29T04:06:02.426Z,100916.41
2022-10-29T04:08:29.769Z,100921.03
2022-10-29T04:10:57.391Z,100914.59
2022-10-29T04:13:24.899Z,100921.78
2022-10-29T04:15:56.156Z,100922.88
2022-10-29T04:18:25.324Z,100925.28
2022-10-29T04:29:16.601Z,100926.50
2022-10-29T04:31:43.934Z,100927.56
2022-10-29T04:34:11.294Z,100923.41
2022-10-29T04:36:38.938Z,100926.53
2022-10-29T04:39:06.306Z,100928.94
2022-10-29T04:41:33.735Z,100922.78
2022-10-29T04:44:02.031Z,100925.31
2022-10-29T04:46:29.431Z,100935.00
2022-10-29T04:48:56.809Z,100920.19
2022-10-29T04:51:26.598Z,100914.69
2022-10-29T04:53:53.928Z,100920.28
2022-10-29T04:56:21.255Z,100917.97
2022-10-29T04:58:52.318Z,100929.22
2022-10-29T05:01:19.995Z,100938.22
2022-10-29T05:03:47.594Z,100929.09
2022-10-29T05:06:15.202Z,100933.19
2022-10-29T05:08:42.581Z,100931.44
2022-10-29T05:11:09.954Z,100928.34
2022-10-29T05:13:37.546Z,100932.09
2022-10-29T05:16:05.288Z,100929.97
2022-10-29T05:18:32.640Z,100935.37
2022-10-29T05:21:00.239Z,100927.81
2022-10-29T05:23:27.574Z,100919.94
2022-10-29T05:25:55.602Z,100921.81
2022-10-29T05:28:24.664Z,100927.69
2022-10-29T05:30:52.693Z,100923.78
2022-10-29T05:33:22.765Z,100928.72
2022-10-29T05:35:51.128Z,100921.72
2022-10-29T05:38:18.950Z,100921.72
2022-10-29T05:40:46.493Z,100929.41
2022-10-29T05:43:15.443Z,100929.97
2022-10-29T05:45:43.459Z,100930.47
2022-10-29T05:50:40.347Z,100928.81
2022-10-29T05:53:11.264Z,100935.50
2022-10-29T05:55:38.895Z,100925.66
2022-10-29T05:58:10.027Z,100923.50
2022-10-29T06:00:40.433Z,100922.50
2022-10-29T06:16:07.836Z,100911.81
2022-10-29T06:18:35.579Z,100911.81
2022-10-29T06:21:02.940Z,100926.88
2022-10-29T06:23:30.281Z,100930.19
2022-10-29T06:26:01.952Z,100930.22
2022-10-29T06:28:34.519Z,100929.19
2022-10-29T06:31:03.134Z,100941.13
2022-10-29T06:33:30.506Z,100949.69
2022-10-29T06:36:01.429Z,100935.56
2022-10-29T06:38:29.067Z,100938.69
2022-10-29T06:40:56.607Z,100944.81
2022-10-29T06:43:23.951Z,100939.94
2022-10-29T06:45:51.603Z,100932.22
2022-10-29T06:48:22.088Z,100944.53
2022-10-29T06:50:50.808Z,100950.38
2022-10-29T06:53:19.032Z,100953.88
2022-10-29T06:55:46.493Z,100957.47
2022-10-29T06:58:16.026Z,100944.44
2022-10-29T07:00:44.619Z,100930.91
2022-10-29T07:03:13.514Z,100931.50
2022-10-29T07:05:41.084Z,100920.88
2022-10-29T07:08:08.794Z,100927.72
2022-10-29T07:10:36.347Z,100934.81
2022-10-29T07:13:04.157Z,100942.53
2022-10-29T07:15:32.074Z,100939.38
2022-10-29T07:18:00.467Z,100956.31
2022-10-29T07:20:29.567Z,100957.50
2022-10-29T07:22:57.779Z,100952.97
2022-10-29T07:25:25.159Z,100954.28
2022-10-29T07:27:52.595Z,100955.31
2022-10-29T07:30:20.715Z,100953.19
2022-10-29T07:32:48.111Z,100951.00
2022-10-29T07:35:15.446Z,100968.25
2022-10-29T07:37:43.073Z,100968.87
2022-10-29T07:40:10.805Z,100974.09
2022-10-29T07:42:38.139Z,100971.81
2022-10-29T07:45:06.342Z,100957.81
2022-10-29T07:47:33.751Z,100945.87
2022-10-29T07:50:01.099Z,100951.34
2022-10-29T07:52:28.712Z,100957.03
2022-10-29T07:54:56.031Z,100957.84
2022-10-29T07:57:23.477Z,100941.97
2022-10-29T07:59:52.015Z,100955.25
2022-10-29T08:02:19.389Z,100943.03
2022-10-29T08:04:47.015Z,100939.44
2022-10-29T08:07:14.385Z,100957.22
2022-10-29T08:09:41.729Z,100966.97
2022-10-29T08:12:11.110Z,100963.97
2022-10-29T08:14:38.448Z,100955.03
2022-10-29T08:17:05.774Z,100949.53
2022-10-29T08:19:33.355Z,100953.13
2022-10-29T08:22:00.723Z,100963.97
2022-10-29T08:24:28.050Z,100956.59
2022-10-29T08:26:55.701Z,100952.09
2022-10-29T08:29:23.040Z,100944.59
2022-10-29T08:31:50.382Z,100935.44
2022-10-29T08:34:17.996Z,100943.53
2022-10-29T08:36:45.362Z,100955.22
2022-10-29T08:39:12.876Z,100963.59
2022-10-29T08:42:15.981Z,100959.47
2022-10-29T08:44:55.142Z,100971.44
2022-10-29T08:47:23.521Z,100970.69
2022-10-29T08:50:10.505Z,100960.53
2022-10-29T08:52:48.163Z,100949.78
2022-10-29T08:55:33.901Z,100947.59
2022-10-29T08:58:13.735Z,100951.38
2022-10-29T09:00:42.537Z,100945.37
2022-10-29T09:03:11.907Z,100932.13
2022-10-29T09:05:50.145Z,100933.59
2022-10-29T09:08:38.893Z,100937.03
2022-10-29T09:11:27.819Z,100935.44
2022-10-29T09:14:14.054Z,100936.75
2022-10-29T09:16:52.809Z,100946.00
2022-10-29T09:19:39.109Z,100948.31
2022-10-29T09:22:22.733Z,100946.22
2022-10-29T09:24:55.930Z,100936.69
2022-10-29T09:27:38.796Z,100940.47
2022-10-29T09:30:13.036Z,100943.44
2022-10-29T09:32:44.182Z,100941.75
2022-10-29T09:35:17.367Z,100938.66
2022-10-29T09:37:54.396Z,100927.47
2022-10-29T09:40:37.302Z,100944.56
2022-10-29T09:43:24.989Z,100947.38
2022-10-29T09:46:00.234Z,100949.09
2022-10-29T09:48:35.132Z,100951.66
2022-10-29T09:51:08.441Z,100941.34
2022-10-29T09:53:35.805Z,100930.84
2022-10-29T09:56:07.048Z,100916.50
2022-10-29T09:58:37.591Z,100904.84
2022-10-29T10:01:05.457Z,100911.31
2022-10-29T10:03:41.839Z,100919.69
2022-10-29T10:06:10.303Z,100918.81
2022-10-29T10:08:59.090Z,100916.91
2022-10-29T10:11:31.178Z,100925.59
2022-10-29T10:13:59.902Z,100927.00
2022-10-29T10:16:29.378Z,100918.81
2022-10-29T10:18:56.715Z,100914.50
2022-10-29T10:21:27.753Z,100917.16
2022-10-29T10:23:57.646Z,100916.00
2022-10-29T10:26:32.967Z,100910.53
2022-10-29T10:29:11.113Z,100910.53
2022-10-29T10:31:39.652Z,100903.94
2022-10-29T10:34:16.297Z,100900.34
2022-10-29T10:36:47.845Z,100898.06
2022-10-29T10:39:26.042Z,100904.69
2022-10-29T10:41:55.262Z,100906.25
2022-10-29T10:44:23.365Z,100899.03
2022-10-29T10:46:52.639Z,100899.31
2022-10-29T10:49:37.344Z,100894.16
2022-10-29T10:52:30.803Z,100886.91
2022-10-29T10:55:00.536Z,100888.44
2022-10-29T10:57:41.621Z,100889.88
2022-10-29T11:00:20.211Z,100880.56
2022-10-29T11:03:01.197Z,100879.34
2022-10-29T11:05:32.141Z,100884.78
2022-10-29T11:08:14.467Z,100877.37
2022-10-29T11:10:53.649Z,100881.16
2022-10-29T11:13:22.968Z,100878.16
2022-10-29T11:16:17.122Z,100873.47
2022-10-29T11:19:19.675Z,100875.25
2022-10-29T11:22:26.237Z,100865.75
2022-10-29T11:25:14.567Z,100862.19
2022-10-29T11:27:55.951Z,100865.62
2022-10-29T11:30:26.478Z,100868.81
2022-10-29T11:33:10.257Z,100865.66
2022-10-29T11:35:56.062Z,100847.91
2022-10-29T11:38:35.976Z,100852.06
2022-10-29T11:41:26.601Z,100853.81
2022-10-29T11:43:54.703Z,100842.25
2022-10-29T11:46:26.457Z,100849.81
2022-10-29T11:49:18.819Z,100839.31
2022-10-29T11:51:46.069Z,100836.44
2022-10-29T11:54:56.898Z,100831.91
2022-10-29T11:57:37.013Z,100839.84
2022-10-29T12:00:07.620Z,100833.19
2022-10-29T12:03:18.455Z,100835.75
2022-10-29T12:05:56.530Z,100839.75
2022-10-29T12:08:45.635Z,100833.94
2022-10-29T12:11:43.045Z,100829.19
2022-10-29T12:14:16.775Z,100835.75
2022-10-29T12:17:09.515Z,100826.59
2022-10-29T12:19:55.636Z,100829.03
2022-10-29T12:22:38.785Z,100837.91
2022-10-29T12:25:08.945Z,100828.00
2022-10-29T12:34:11.977Z,100814.78
2022-10-29T12:37:12.561Z,100803.37
2022-10-29T12:39:45.315Z,100806.41
2022-10-29T12:42:17.985Z,100804.06
2022-10-29T12:45:02.948Z,100804.44
2022-10-29T12:47:36.055Z,100790.28
2022-10-29T12:50:16.128Z,100779.81
2022-10-29T12:52:50.612Z,100787.72
2022-10-29T12:55:18.180Z,100778.97
2022-10-29T12:57:45.891Z,100788.41
2022-10-29T13:00:25.579Z,100780.84
2022-10-29T13:02:54.251Z,100782.19
2022-10-29T13:05:33.987Z,100771.12
2022-10-29T13:08:04.517Z,100775.75
2022-10-29T13:10:31.719Z,100779.50
2022-10-29T13:12:59.264Z,100781.47
2022-10-29T13:15:46.649Z,100778.03
2022-10-29T13:18:34.658Z,100783.72
2022-10-29T13:21:05.760Z,100769.59
2022-10-29T13:23:37.635Z,100777.88
2022-10-29T13:26:06.691Z,100784.47
2022-10-29T13:28:37.149Z,100779.53
2022-10-29T13:31:04.645Z,100776.28
2022-10-29T13:33:31.913Z,100770.72
2022-10-29T13:36:03.944Z,100775.72
2022-10-29T13:38:51.919Z,100776.25
2022-10-29T13:41:39.906Z,100768.59
2022-10-29T13:44:07.646Z,100775.94
2022-10-29T13:46:40.121Z,100774.19
2022-10-29T13:49:27.820Z,100770.88
2022-10-29T13:51:57.466Z,100764.19
2022-10-29T13:54:40.337Z,100753.75
2022-10-29T13:57:13.638Z,100750.22
2022-10-29T13:59:56.521Z,100759.94
2022-10-29T14:02:30.619Z,100759.34
2022-10-29T14:05:06.174Z,100766.59
2022-10-29T14:08:00.527Z,100759.37
2022-10-29T14:10:34.616Z,100746.31
2022-10-29T14:13:23.618Z,100739.31
2022-10-29T14:16:05.991Z,100743.09
2022-10-29T14:18:47.479Z,100746.31
2022-10-29T14:21:29.735Z,100748.38
2022-10-29T14:24:05.936Z,100761.31
2022-10-29T14:26:36.552Z,100753.47
2022-10-29T14:29:22.006Z,100755.22
2022-10-29T14:32:06.618Z,100760.06
2022-10-29T14:34:34.050Z,100772.53
2022-10-29T14:37:08.303Z,100760.56
2022-10-29T14:39:57.217Z,100755.19
2022-10-29T14:42:38.723Z,100753.00
2022-10-29T14:45:14.426Z,100747.47
2022-10-29T14:47:42.173Z,100748.25
2022-10-29T14:50:18.885Z,100752.16
2022-10-29T14:52:53.642Z,100758.34
2022-10-29T14:55:42.072Z,100755.13
2022-10-29T14:58:30.299Z,100763.22
2022-10-29T15:01:03.514Z,100757.47
2022-10-29T15:03:32.967Z,100754.53
2022-10-29T15:06:16.729Z,100749.47
2022-10-29T15:09:06.666Z,100758.41
2022-10-29T15:11:37.218Z,100741.16
2022-10-29T15:14:25.178Z,100745.81
2022-10-29T15:16:52.614Z,100739.06
2022-10-29T15:19:20.242Z,100739.31
2022-10-29T15:21:47.628Z,100735.97
2022-10-29T15:24:20.587Z,100729.81
2022-10-29T15:26:53.982Z,100725.47
2022-10-29T15:29:32.272Z,100721.63
2022-10-29T15:32:01.848Z,100720.56
2022-10-29T15:34:34.844Z,100717.41
2022-10-29T15:37:23.498Z,100716.19
2022-10-29T15:39:56.785Z,100719.72
2022-10-29T15:42:29.170Z,100722.47
2022-10-29T15:45:08.783Z,100720.53
2022-10-29T15:47:38.104Z,100716.72
2022-10-29T15:50:07.900Z,100723.00
2022-10-29T15:52:41.249Z,100721.75
2022-10-29T15:55:26.549Z,100723.88
2022-10-29T15:58:00.081Z,100719.00
2022-10-29T16:00:28.640Z,100732.66
2022-10-29T16:03:17.565Z,100745.94
2022-10-29T16:05:47.377Z,100749.31
2022-10-29T16:08:30.586Z,100755.69
2022-10-29T16:10:59.516Z,100751.06
2022-10-29T16:13:28.773Z,100746.41
2022-10-29T16:15:56.411Z,100737.03
2022-10-29T16:18:23.908Z,100732.00
2022-10-29T16:20:55.148Z,100732.59
2022-10-29T16:23:22.513Z,100729.03
2022-10-29T16:25:49.896Z,100729.53
2022-10-29T16:28:17.517Z,100733.31
2022-10-29T16:30:53.064Z,100742.75
2022-10-29T16:33:20.934Z,100735.09
2022-10-29T16:35:48.288Z,100735.03
2022-10-29T16:38:18.511Z,100734.69
2022-10-29T16:40:46.395Z,100731.59
2022-10-29T16:43:13.774Z,100728.91
2022-10-29T16:45:41.249Z,100716.91
2022-10-29T16:48:08.902Z,100721.47
2022-10-29T16:50:37.391Z,100723.69
2022-10-29T16:53:12.376Z,100714.81
2022-10-29T16:55:40.933Z,100722.38
2022-10-29T16:58:12.688Z,100721.97
2022-10-29T17:00:40.728Z,100713.78
2022-10-29T17:03:11.934Z,100716.19
2022-10-29T17:05:45.371Z,100726.91
2022-10-29T17:08:13.283Z,100715.50
2022-10-29T17:10:40.934Z,100705.31
2022-10-29T17:13:11.516Z,100711.22
2022-10-29T17:15:40.875Z,100713.78
2022-10-29T17:18:08.789Z,100725.13
2022-10-29T17:20:36.584Z,100726.28
2022-10-29T17:23:04.124Z,100728.53
2022-10-29T17:25:31.879Z,100722.59
2022-10-29T17:27:59.846Z,100723.59
2022-10-29T17:30:27.954Z,100713.25
2022-10-29T17:32:55.995Z,100702.34
2022-10-29T17:35:23.561Z,100709.31
2022-10-29T17:37:51.051Z,100708.75
2022-10-29T17:40:18.662Z,100699.41
2022-10-29T17:42:46.005Z,100706.72
2022-10-29T17:45:14.345Z,100703.06
2022-10-29T17:47:42.033Z,100698.63
2022-10-29T17:50:09.884Z,100709.38
2022-10-29T17:52:37.288Z,100700.38
2022-10-29T17:55:05.261Z,100708.41
2022-10-29T17:57:32.963Z,100717.88
2022-10-29T18:00:00.928Z,100727.56
2022-10-29T18:02:28.705Z,100725.97
2022-10-29T18:04:57.115Z,100714.56
2022-10-29T18:07:25.074Z,100726.50
2022-10-29T18:09:52.979Z,100725.41
2022-10-29T18:12:20.676Z,100718.75
2022-10-29T18:14:48.017Z,100711.63
2022-10-29T18:17:15.867Z,100716.22
2022-10-29T18:19:43.887Z,100719.84
2022-10-29T18:22:11.846Z,100722.50
2022-10-29T18:24:39.253Z,100715.09
2022-10-29T18:27:06.888Z,100707.47
2022-10-29T18:29:34.976Z,100716.34
2022-10-29T18:32:02.893Z,100716.75
2022-10-29T18:34:31.752Z,100716.34
2022-10-29T18:36:59.175Z,100715.97
2022-10-29T18:39:26.684Z,100709.59
2022-10-29T18:41:54.571Z,100720.22
2022-10-29T18:44:23.103Z,100715.19
2022-10-29T18:46:50.552Z,100701.00
2022-10-29T18:49:18.904Z,100704.69
2022-10-29T18:51:46.891Z,100703.97
2022-10-29T18:54:15.276Z,100705.22
2022-10-29T18:56:43.014Z,100700.78
2022-10-29T18:59:10.938Z,100695.72
2022-10-29T19:01:38.629Z,100695.28
2022-10-29T19:04:08.616Z,100687.97
2022-10-29T19:06:37.580Z,100687.53
2022-10-29T19:09:07.673Z,100686.25
2022-10-29T19:11:36.234Z,100672.94
2022-10-29T19:14:06.128Z,100674.53
2022-10-29T19:16:33.963Z,100679.62
2022-10-29T19:19:07.501Z,100681.50
2022-10-29T19:21:36.712Z,100682.34
2022-10-29T19:24:05.673Z,100672.34
2022-10-29T19:26:34.750Z,100669.88
2022-10-29T19:29:04.067Z,100660.81
2022-10-29T19:31:32.541Z,100660.56
2022-10-29T19:34:01.902Z,100661.69
2022-10-29T19:36:29.933Z,100667.28
2022-10-29T19:38:57.951Z,100657.31
2022-10-29T19:41:25.337Z,100672.44
2022-10-29T19:43:53.339Z,100674.72
2022-10-29T19:46:24.592Z,100679.81
2022-10-29T19:48:53.711Z,100678.22
2022-10-29T19:51:22.163Z,100677.44
2022-10-29T19:53:51.624Z,100669.41
2022-10-29T19:56:20.226Z,100670.13
2022-10-29T19:58:47.900Z,100662.53
2022-10-29T20:01:16.741Z,100656.94
2022-10-29T20:03:45.483Z,100653.75
2022-10-29T20:06:14.052Z,100661.34
2022-10-29T20:08:41.479Z,100658.59
2022-10-29T20:11:09.185Z,100654.63
2022-10-29T20:13:36.837Z,100658.72
2022-10-29T20:16:09.825Z,100663.63
2022-10-29T20:18:38.651Z,100655.50
2022-10-29T20:21:07.113Z,100651.53
2022-10-29T20:23:35.053Z,100651.59
2022-10-29T20:26:02.842Z,100647.31
2022-10-29T20:28:30.380Z,100650.72
2022-10-29T20:31:31.675Z,100652.28
2022-10-29T20:34:01.584Z,100659.88
2022-10-29T20:36:31.191Z,100647.75
2022-10-29T20:38:59.015Z,100656.03
2022-10-29T20:41:27.169Z,100647.97
2022-10-29T20:43:57.858Z,100660.19
2022-10-29T20:46:26.174Z,100653.13
2022-10-29T20:48:54.212Z,100656.69
2022-10-29T20:51:23.248Z,100667.84
2022-10-29T20:53:51.852Z,100667.53
2022-10-29T20:56:20.830Z,100674.63
2022-10-29T20:58:48.229Z,100662.62
2022-10-29T21:01:18.133Z,100657.28
2022-10-29T21:03:48.259Z,100653.72
2022-10-29T21:06:17.541Z,100660.53
2022-10-29T21:08:46.362Z,100658.56
2022-10-29T21:11:15.061Z,100655.59
2022-10-29T21:13:42.737Z,100661.47
2022-10-29T21:16:24.789Z,100663.06
2022-10-29T21:18:54.203Z,100656.53
2022-10-29T21:21:21.919Z,100660.94
2022-10-29T21:23:49.298Z,100662.84
2022-10-29T21:26:21.779Z,100657.09
2022-10-29T21:28:50.666Z,100658.69
2022-10-29T21:31:19.951Z,100657.37
2022-10-29T21:33:51.263Z,100661.94
2022-10-29T21:36:19.335Z,100671.37
2022-10-29T21:38:46.698Z,100663.81
2022-10-29T21:41:14.653Z,100664.28
2022-10-29T21:43:42.274Z,100656.44
2022-10-29T21:46:09.725Z,100657.81
2022-10-29T21:48:37.163Z,100664.91
2022-10-29T21:51:12.629Z,100663.78
2022-10-29T21:53:40.032Z,100662.47
2022-10-29T21:56:08.747Z,100660.22
2022-10-29T21:58:36.073Z,100665.88
2022-10-29T22:01:14.268Z,100672.50
2022-10-29T22:03:43.051Z,100669.56
2022-10-29T22:06:18.680Z,100661.59
2022-10-29T22:08:47.152Z,100661.13
2022-10-29T22:11:15.387Z,100647.69
2022-10-29T22:13:42.684Z,100652.38
2022-10-29T22:16:10.611Z,100645.97
2022-10-29T22:18:38.442Z,100650.72
2022-10-29T22:21:12.555Z,100655.25
2022-10-29T22:23:48.371Z,100656.69
2022-10-29T22:26:17.583Z,100660.31
2022-10-29T22:28:47.115Z,100663.78
2022-10-29T22:31:15.306Z,100659.97
2022-10-29T22:33:43.485Z,100651.38
2022-10-29T22:36:13.733Z,100644.44
2022-10-29T22:38:41.069Z,100649.00
2022-10-29T22:41:09.607Z,100637.53
2022-10-29T22:43:37.893Z,100642.31
2022-10-29T22:46:06.270Z,100642.34
2022-10-29T22:48:34.112Z,100634.59
2022-10-29T22:51:04.099Z,100633.72
2022-10-29T22:53:32.323Z,100634.38
2022-10-29T22:56:00.859Z,100636.31
2022-10-29T22:58:28.476Z,100634.25
2022-10-29T23:01:13.270Z,100621.28
2022-10-29T23:03:41.541Z,100618.09
2022-10-29T23:06:11.352Z,100611.78
2022-10-29T23:08:38.797Z,100620.22
2022-10-29T23:11:08.294Z,100617.84
2022-10-29T23:13:35.635Z,100611.03
2022-10-29T23:16:03.078Z,100610.16
2022-10-29T23:18:30.693Z,100609.87
2022-10-29T23:21:02.345Z,100605.53
2022-10-29T23:23:30.204Z,100612.03
2022-10-29T23:26:01.411Z,100622.38
2022-10-29T23:28:33.207Z,100624.22
2022-10-29T23:31:02.494Z,100619.44
2022-10-29T23:33:30.930Z,100620.59
2022-10-29T23:36:05.999Z,100613.22
2022-10-29T23:38:34.436Z,100618.88
2022-10-29T23:41:02.297Z,100615.25
2022-10-29T23:43:30.129Z,100602.94
2022-10-29T23:45:57.750Z,100601.88
2022-10-29T23:48:25.462Z,100606.19
2022-10-29T23:50:53.263Z,100602.38
2022-10-29T23:53:20.903Z,100600.44
2022-10-29T23:55:48.413Z,100593.47
2022-10-29T23:58:16.107Z,100593.31
